WetterOnline ( https://www.wetteronline.de )

Wetter aktuell Blomberg

Aktuelles Wetter: Norderney (16m)

6-stündlich | Neueste Meldungen
Ortszeit Temperatur Wetter
Fr, 03.04. 14:00 7.4° C bedeckt
Fr, 03.04. 8:00 6.0° C leicht bewölkt
Fr, 03.04. 2:00 6.5° C bedeckt
Do, 02.04. 20:00 7.6° C bedeckt
Do, 02.04. 14:00 9.2° C bewölkt
Do, 02.04. 8:00 5.5° C wolkig
Do, 02.04. 2:00 6.5° C bedeckt
Mi, 01.04. 20:00 6.7° C bedeckt
Ortszeit Temperatur Wetter
Fr, 03.04. 19:10 6.5° C leicht bewölkt
Fr, 03.04. 19:00 6.5° C wolkig
Fr, 03.04. 18:50 6.5° C wolkig
Fr, 03.04. 18:40 6.5° C bewölkt
Fr, 03.04. 18:30 6.8° C bedeckt
Fr, 03.04. 18:20 6.8° C bedeckt
Fr, 03.04. 18:00 6.9° C bewölkt
Fr, 03.04. 17:30 7.2° C bewölkt
Fr, 03.04. 17:00 7.2° C leicht bewölkt
Fr, 03.04. 16:30 7.7° C fast wolkenlos
Fr, 03.04. 16:00 7.8° C wolkenlos
Ortszeit Relative Feuchte Sichtweite
Fr, 03.04. 14:00 70% 22 km
Fr, 03.04. 8:00 60% 16 km
Fr, 03.04. 2:00 65% 14 km
Do, 02.04. 20:00 90% 9 km
Do, 02.04. 14:00 71% 23 km
Do, 02.04. 8:00 89% 18 km
Do, 02.04. 2:00 88% 9 km
Mi, 01.04. 20:00 85% 14 km
Ortszeit Relative Feuchte Sichtweite
Fr, 03.04. 19:10 67% -
Fr, 03.04. 19:00 68% 12 km
Fr, 03.04. 18:50 68% -
Fr, 03.04. 18:40 69% -
Fr, 03.04. 18:30 71% 10 km
Fr, 03.04. 18:20 71% -
Fr, 03.04. 18:00 65% 12 km
Fr, 03.04. 17:30 63% 17 km
Fr, 03.04. 17:00 63% 17 km
Fr, 03.04. 16:30 62% 14 km
Fr, 03.04. 16:00 67% 10 km
Ortszeit Niederschlagsmenge Niederschlagsart
Fr, 03.04. 14:00 0.1 l/m2 in 6 Std. Regen
Fr, 03.04. 8:00 0.1 l/m2 in 12 Std. -
Fr, 03.04. 2:00 0.1 l/m2 in 6 Std. Regen
Do, 02.04. 20:00 0.1 l/m2 in 12 Std. Regen
Do, 02.04. 14:00 0.0 l/m2 in 6 Std. -
Do, 02.04. 8:00 0.0 l/m2 in 12 Std. -
Do, 02.04. 2:00 0.0 l/m2 in 6 Std. -
Mi, 01.04. 20:00 0.1 l/m2 in 12 Std. -
Ortszeit Niederschlagsmenge Niederschlagsart
Fr, 03.04. 19:10 keine Meldung -
Fr, 03.04. 19:00 0.0 l/m2 in 1 Std. -
Fr, 03.04. 18:50 keine Meldung -
Fr, 03.04. 18:40 keine Meldung -
Fr, 03.04. 18:30 0.0 l/m2 in 1 Std. -
Fr, 03.04. 18:20 keine Meldung -
Fr, 03.04. 18:00 0.0 l/m2 in 1 Std. -
Fr, 03.04. 17:30 0.0 l/m2 in 1 Std. -
Fr, 03.04. 17:00 0.0 l/m2 in 1 Std. -
Fr, 03.04. 16:30 0.0 l/m2 in 1 Std. -
Fr, 03.04. 16:00 0.0 l/m2 in 1 Std. -
Ortszeit Stärke Spitze Richtung
km/h Bft. km/h Grad Sektor
Fr, 03.04. 14:00 20 4 48 270° W
Fr, 03.04. 8:00 43 6 58 300° NW
Fr, 03.04. 2:00 44 6 56 300° NW
Do, 02.04. 20:00 35 5 57 260° W
Do, 02.04. 14:00 33 5 52 250° W
Do, 02.04. 8:00 20 4 35 240° SW
Do, 02.04. 2:00 22 4 40 270° W
Mi, 01.04. 20:00 28 4 43 280° W
Ortszeit Stärke Spitze Richtung
km/h Bft. km/h Grad Sektor
Fr, 03.04. 19:10 26 4 - 300° NW
Fr, 03.04. 19:00 28 4 33 290° W
Fr, 03.04. 18:50 28 4 - 290° W
Fr, 03.04. 18:40 25 4 - 280° W
Fr, 03.04. 18:30 25 4 36 280° W
Fr, 03.04. 18:20 25 4 - 280° W
Fr, 03.04. 18:00 29 5 40 290° W
Fr, 03.04. 17:30 28 4 39 290° W
Fr, 03.04. 17:00 28 4 31 290° W
Fr, 03.04. 16:30 25 4 32 290° W
Fr, 03.04. 16:00 19 3 24 290° W
Ortszeit Untergrenze Bedeckung Gattung
total tief tief mittel hoch
Fr, 03.04. 14:00 1800 m 8/8 8/8 - - -
Fr, 03.04. 8:00 1200 m 4/8 4/8 - - -
Fr, 03.04. 2:00 2100 m 8/8 8/8 - - -
Do, 02.04. 20:00 540 m 8/8 8/8 - - -
Do, 02.04. 14:00 1200 m 7/8 7/8 - - -
Do, 02.04. 8:00 1500 m 5/8 5/8 - - -
Do, 02.04. 2:00 330 m 8/8 8/8 - - -
Mi, 01.04. 20:00 1500 m 8/8 8/8 - - -
Ortszeit Bedeckungsgrad in Achtel und Wolkenuntergrenze
Fr, 03.04. 19:10 1(840m) 2(1800m)
Fr, 03.04. 19:00 3(810m) 6(1800m)
Fr, 03.04. 18:50 3(810m) 6(1800m)
Fr, 03.04. 18:40 3(810m) 3(1020m) 7(1800m)
Fr, 03.04. 18:30 1(1320m) 8(1800m)
Fr, 03.04. 18:20 1(1320m) 8(1800m)
Fr, 03.04. 18:00 1(1110m) 7(1800m) 8(1800m)
Fr, 03.04. 17:30 7(1800m)
Fr, 03.04. 17:00 2(1800m)
Fr, 03.04. 16:30 2(1800m)
Fr, 03.04. 16:00 keine Wolken
Ortszeit Luftdruck NN (hPa) Tendenz (hPa in 3 Std.)
Fr, 03.04. 14:00 1015 + 1,8
Fr, 03.04. 8:00 1011 + 1,9
Fr, 03.04. 2:00 1008 + 0,6
Do, 02.04. 20:00 1007 - 1,0
Do, 02.04. 14:00 1009 - 2,0
Do, 02.04. 8:00 1012 - 1,2
Do, 02.04. 2:00 1015 - 1,2
Mi, 01.04. 20:00 1017 - 1,2
Ortszeit Luftdruck NN (hPa) Tendenz (hPa in 3 Std.)
Fr, 03.04. 19:10 1017 keine Meldung
Fr, 03.04. 19:00 1017 + 1,2
Fr, 03.04. 18:50 1017 keine Meldung
Fr, 03.04. 18:40 1017 keine Meldung
Fr, 03.04. 18:30 1017 + 1,1
Fr, 03.04. 18:20 1017 keine Meldung
Fr, 03.04. 18:00 1017 + 1,1
Fr, 03.04. 17:30 1016 + 1,0
Fr, 03.04. 17:00 1016 + 1,1
Fr, 03.04. 16:30 1016 + 1,0
Fr, 03.04. 16:00 1016 + 1,3
Ortszeit Schneehöhe (cm)
Fr, 03.04. 14:00 0
Fr, 03.04. 8:00 0
Fr, 03.04. 2:00 0
Do, 02.04. 20:00 0
Do, 02.04. 14:00 0
Do, 02.04. 8:00 0
Do, 02.04. 2:00 0
Mi, 01.04. 20:00 0
Ortszeit Schneehöhe (cm)
Fr, 03.04. 19:10 0
Fr, 03.04. 19:00 0
Fr, 03.04. 18:50 0
Fr, 03.04. 18:40 0
Fr, 03.04. 18:30 0
Fr, 03.04. 18:20 0
Fr, 03.04. 18:00 0
Fr, 03.04. 17:30 0
Fr, 03.04. 17:00 0
Fr, 03.04. 16:30 0
Fr, 03.04. 16:00 0
Link zu dieser Seite / Seite empfehlen

Das Wetter in ...